TimePST,TemperatureF,Dew PointF,Humidity,Sea Level PressureIn,VisibilityMPH,Wind Direction,Wind SpeedMPH,Gust SpeedMPH,PrecipitationIn,Events,Conditions,WindDirDegrees,DateUTC
12:53 AM,42.1,39.0,89,29.97,10.0,Calm,Calm,-,0.02,Rain,Light Rain,0,2013-01-07 08:53:00
1:53 AM,42.1,39.0,89,29.95,10.0,SSE,5.8,-,0.00,,Overcast,150,2013-01-07 09:53:00
2:53 AM,43.0,39.0,86,29.93,8.0,South,5.8,-,0.01,Rain,Light Rain,170,2013-01-07 10:53:00
3:53 AM,45.0,41.0,86,29.90,10.0,South,16.1,21.9,0.00,Rain,Light Rain,190,2013-01-07 11:53:00
4:53 AM,45.0,42.1,90,29.86,10.0,South,17.3,24.2,0.01,,Overcast,190,2013-01-07 12:53:00
5:53 AM,45.0,41.0,86,29.86,10.0,SSW,18.4,28.8,0.01,Rain,Light Rain,200,2013-01-07 13:53:00
6:53 AM,45.0,42.1,90,29.84,10.0,South,18.4,27.6,0.02,,Overcast,190,2013-01-07 14:53:00
7:02 AM,44.6,42.8,93,29.84,10.0,South,19.6,28.8,N/A,,Overcast,180,2013-01-07 15:02:00
7:09 AM,46.4,42.8,87,29.84,10.0,South,21.9,27.6,N/A,,Overcast,180,2013-01-07 15:09:00
7:53 AM,46.0,42.1,86,29.85,10.0,South,19.6,28.8,N/A,,Overcast,170,2013-01-07 15:53:00
8:53 AM,46.9,43.0,86,29.87,7.0,South,17.3,27.6,N/A,,Overcast,180,2013-01-07 16:53:00
8:58 AM,46.4,44.6,93,29.86,5.0,South,16.1,25.3,N/A,,Overcast,180,2013-01-07 16:58:00
9:53 AM,48.0,45.0,89,29.90,5.0,South,21.9,33.4,0.00,Rain,Light Rain,180,2013-01-07 17:53:00
10:00 AM,48.2,44.6,87,29.90,2.5,South,19.6,33.4,0.00,Rain,Light Rain,180,2013-01-07 18:00:00
10:53 AM,48.0,46.0,93,29.93,2.5,South,19.6,28.8,0.01,,Overcast,190,2013-01-07 18:53:00
11:53 AM,48.9,46.0,90,29.94,4.0,SSW,15.0,23.0,0.00,,Overcast,200,2013-01-07 19:53:00
12:38 PM,48.2,46.4,93,29.94,10.0,SSW,18.4,29.9,0.01,,Overcast,210,2013-01-07 20:38:00
12:53 PM,48.9,45.0,86,29.96,9.0,SSW,17.3,29.9,0.01,,Overcast,210,2013-01-07 20:53:00
1:08 PM,50.0,44.6,82,29.96,10.0,SSW,17.3,32.2,N/A,,Overcast,210,2013-01-07 21:08:00
1:26 PM,48.2,44.6,87,29.98,10.0,SW,13.8,26.5,N/A,,Overcast,220,2013-01-07 21:26:00
1:43 PM,48.2,44.6,87,29.99,10.0,SSW,17.3,27.6,N/A,,Overcast,210,2013-01-07 21:43:00
1:53 PM,48.9,44.1,83,30.00,10.0,SSW,17.3,26.5,N/A,,Overcast,210,2013-01-07 21:53:00
2:53 PM,48.2,44.6,87,29.99,5.0,South,19.6,27.6,N/A,,Overcast,190,2013-01-07 22:53:00
3:05 PM,48.2,44.6,87,30.01,8.0,SSW,19.6,29.9,N/A,,Overcast,200,2013-01-07 23:05:00
3:53 PM,48.0,44.1,86,30.04,10.0,SSW,16.1,28.8,N/A,,Mostly Cloudy,200,2013-01-07 23:53:00
4:45 PM,46.4,44.6,93,30.04,10.0,SSW,16.1,25.3,N/A,,Overcast,200,2013-01-08 00:45:00
4:53 PM,48.0,44.1,86,30.06,10.0,SSW,15.0,25.3,N/A,,Overcast,200,2013-01-08 00:53:00
5:45 PM,46.4,42.8,87,30.06,10.0,SSW,19.6,27.6,N/A,,Mostly Cloudy,200,2013-01-08 01:45:00
5:53 PM,46.9,42.1,83,30.07,10.0,SSW,15.0,27.6,N/A,,Mostly Cloudy,200,2013-01-08 01:53:00
6:53 PM,46.9,39.9,77,30.09,10.0,SSW,16.1,27.6,N/A,,Overcast,200,2013-01-08 02:53:00
7:53 PM,46.9,39.0,74,30.10,10.0,SSW,11.5,24.2,N/A,,Overcast,210,2013-01-08 03:53:00
8:53 PM,46.0,39.0,76,30.13,10.0,SSW,8.1,16.1,N/A,,Overcast,210,2013-01-08 04:53:00
9:01 PM,46.4,37.4,71,30.13,10.0,SSW,9.2,19.6,N/A,,Overcast,200,2013-01-08 05:01:00
9:53 PM,46.0,39.9,79,30.15,10.0,South,11.5,18.4,N/A,,Overcast,190,2013-01-08 05:53:00
10:48 PM,46.4,39.2,76,30.15,10.0,South,12.7,-,N/A,,Overcast,190,2013-01-08 06:48:00
10:53 PM,46.0,39.9,79,30.16,10.0,South,12.7,-,N/A,,Overcast,190,2013-01-08 06:53:00
11:30 PM,46.4,39.2,76,30.17,10.0,SSW,10.4,-,N/A,,Overcast,200,2013-01-08 07:30:00
11:53 PM,46.0,39.9,79,30.17,10.0,South,10.4,19.6,N/A,,Overcast,190,2013-01-08 07:53:00